Time;durP1;ratioP1;P1;durP2;ratioP2;P2;SDS_P1;SDS_P2;PMS_P1;PMS_P2;Temp;Humidity;BMP_temperature;BMP_pressure;BME280_temperature;BME280_humidity;BME280_pressure;Samples;Min_cycle;Max_cycle;Signal;HPM_P1;HPM_P2
2021/05/05 00:00:33;;;;;;;11.63;5.68;;;;;;;12.37;86.46;97008.78;4858238;29;20507;-81
2021/05/05 00:02:58;;;;;;;7.68;5.15;;;;;;;12.46;85.74;97008.06;4875287;29;20039;-82
2021/05/05 00:05:24;;;;;;;11.75;6.13;;;;;;;12.54;83.72;97008.34;4878051;29;20123;-81
2021/05/05 00:07:50;;;;;;;9.77;6.03;;;;;;;12.52;84.34;97006.78;4884997;29;20037;-80
2021/05/05 00:10:16;;;;;;;10.57;6.07;;;;;;;12.49;83.63;97008.69;4887916;29;20025;-81
2021/05/05 00:12:42;;;;;;;10.10;5.93;;;;;;;12.52;83.49;97012.13;4852853;29;20040;-81
2021/05/05 00:15:22;;;;;;;8.38;6.03;;;;;;;12.61;83.60;97003.38;4859660;29;20033;-81
2021/05/05 00:17:48;;;;;;;11.25;6.00;;;;;;;12.48;84.40;96996.28;4859932;29;20039;-81
2021/05/05 00:20:14;;;;;;;9.32;5.30;;;;;;;12.49;83.26;97007.84;4864122;29;20033;-80
2021/05/05 00:22:40;;;;;;;6.63;5.20;;;;;;;12.54;82.95;97011.03;4856855;29;20037;-81
2021/05/05 00:25:07;;;;;;;9.45;5.53;;;;;;;12.56;83.02;97008.22;4874519;29;20418;-80
2021/05/05 00:27:33;;;;;;;17.23;5.82;;;;;;;12.57;83.01;96996.50;4859720;29;20036;-82
2021/05/05 00:29:59;;;;;;;9.88;5.68;;;;;;;12.54;84.54;96988.72;4858234;29;20028;-81
2021/05/05 00:32:25;;;;;;;8.50;5.80;;;;;;;12.50;84.54;96999.69;4856594;29;20037;-81
2021/05/05 00:34:51;;;;;;;13.82;5.97;;;;;;;12.33;85.38;97002.84;4864484;29;20033;-81
2021/05/05 00:37:16;;;;;;;15.85;6.15;;;;;;;12.23;85.94;97001.84;4863952;29;20032;-81
2021/05/05 00:39:42;;;;;;;8.52;5.18;;;;;;;12.22;85.89;97005.47;4855513;29;20040;-81
2021/05/05 00:42:08;;;;;;;8.77;5.40;;;;;;;12.09;86.73;97004.69;4865064;29;20175;-81
2021/05/05 00:44:33;;;;;;;8.77;5.35;;;;;;;12.02;87.31;96994.59;4869510;29;20037;-81
2021/05/05 00:47:00;;;;;;;7.43;5.35;;;;;;;11.92;88.52;97000.66;4858797;29;20573;-81
2021/05/05 00:49:26;;;;;;;8.25;5.60;;;;;;;11.94;88.90;96995.16;4868347;29;20409;-81
2021/05/05 00:51:51;;;;;;;7.88;5.45;;;;;;;12.03;88.80;96989.09;4852082;29;20037;-82
2021/05/05 00:54:17;;;;;;;7.13;5.70;;;;;;;11.94;89.21;96971.03;4874857;29;20035;-82
2021/05/05 00:56:43;;;;;;;8.32;5.78;;;;;;;12.05;87.89;96980.94;4853326;29;20039;-81
2021/05/05 00:59:08;;;;;;;8.68;5.90;;;;;;;12.03;88.91;96967.66;4863287;29;20047;-82
2021/05/05 01:01:34;;;;;;;9.88;5.85;;;;;;;12.04;88.36;96969.38;4876607;29;20515;-82
2021/05/05 01:03:59;;;;;;;12.75;6.30;;;;;;;11.99;88.25;96958.16;4858506;29;20428;-81
2021/05/05 01:06:25;;;;;;;10.57;5.93;;;;;;;12.02;88.74;96960.59;4855779;29;20048;-81
2021/05/05 01:08:51;;;;;;;18.60;6.75;;;;;;;12.04;88.99;96964.00;4871453;29;20036;-81
2021/05/05 01:11:16;;;;;;;13.02;6.22;;;;;;;11.98;88.94;96944.84;4873704;29;20032;-81
2021/05/05 01:13:43;;;;;;;11.55;6.00;;;;;;;12.09;88.70;96960.97;4866706;29;20508;-81
2021/05/05 01:16:09;;;;;;;15.30;6.25;;;;;;;12.01;89.11;96948.16;4849638;29;20473;-81
2021/05/05 01:18:35;;;;;;;9.30;5.35;;;;;;;12.07;89.04;96944.16;4850353;29;20035;-81
2021/05/05 01:21:01;;;;;;;10.10;6.15;;;;;;;12.21;88.42;96960.03;4858687;29;20029;-82
2021/05/05 01:23:27;;;;;;;16.00;6.20;;;;;;;12.21;87.81;96947.44;4858932;29;20437;-80
2021/05/05 01:25:53;;;;;;;9.90;6.15;;;;;;;12.25;87.91;96956.13;4882138;29;20056;-80
2021/05/05 01:28:19;;;;;;;10.77;6.65;;;;;;;12.29;86.88;96953.09;4879589;29;20043;-80
2021/05/05 01:30:46;;;;;;;15.30;6.53;;;;;;;12.30;86.91;96937.84;4876712;29;20028;-80
2021/05/05 01:33:12;;;;;;;13.43;6.28;;;;;;;12.38;86.21;96935.41;4857301;29;20032;-81
2021/05/05 01:35:38;;;;;;;11.52;6.20;;;;;;;12.44;86.10;96933.09;4860110;29;20465;-81
2021/05/05 01:38:03;;;;;;;15.38;6.40;;;;;;;12.52;85.74;96915.56;4866473;29;20037;-80
2021/05/05 01:40:31;;;;;;;11.27;5.80;;;;;;;12.63;84.42;96907.50;4855550;29;20089;-80
2021/05/05 01:42:58;;;;;;;11.15;5.53;;;;;;;12.57;84.02;96905.31;4862319;29;20390;-80
2021/05/05 01:45:23;;;;;;;10.05;6.03;;;;;;;12.62;83.94;96900.41;4856269;29;20545;-82
2021/05/05 01:48:00;;;;;;;9.55;6.22;;;;;;;12.64;84.39;96887.75;4869522;29;20112;-81
2021/05/05 01:50:26;;;;;;;7.07;5.47;;;;;;;12.68;85.70;96898.09;4853940;29;20033;-81
2021/05/05 01:52:52;;;;;;;8.23;6.13;;;;;;;12.64;85.98;96893.97;4853944;29;20037;-81
2021/05/05 01:55:18;;;;;;;15.13;6.88;;;;;;;12.63;86.26;96891.41;4854056;29;20493;-81
2021/05/05 01:57:45;;;;;;;17.55;6.93;;;;;;;12.71;86.36;96894.31;4847617;29;20033;-81
2021/05/05 02:00:16;;;;;;;16.48;7.57;;;;;;;12.60;87.12;96900.53;4870714;29;20029;-81
2021/05/05 02:02:43;;;;;;;10.88;7.43;;;;;;;12.70;87.57;96904.22;4858321;29;20067;-82
2021/05/05 02:05:09;;;;;;;13.25;7.70;;;;;;;12.53;87.12;96891.28;4858182;29;20697;-81
2021/05/05 02:07:35;;;;;;;11.45;7.25;;;;;;;12.55;87.26;96907.25;4873663;29;20124;-81
2021/05/05 02:10:01;;;;;;;14.65;7.55;;;;;;;12.57;87.13;96908.00;4866121;29;20119;-81
2021/05/05 02:12:29;;;;;;;20.27;7.78;;;;;;;12.61;86.75;96914.81;4865647;29;20029;-81
2021/05/05 02:14:54;;;;;;;14.95;7.28;;;;;;;12.61;87.21;96914.81;4860321;29;20037;-81
2021/05/05 02:17:20;;;;;;;16.83;7.20;;;;;;;12.67;87.04;96914.31;4878775;29;20048;-81
2021/05/05 02:19:46;;;;;;;9.95;6.03;;;;;;;12.61;86.24;96902.25;4853694;29;20033;-81
2021/05/05 02:22:11;;;;;;;10.95;6.45;;;;;;;12.52;86.01;96894.09;4862196;29;20072;-81
2021/05/05 02:24:37;;;;;;;10.05;5.72;;;;;;;12.49;86.49;96906.75;4878099;29;20041;-81
2021/05/05 02:27:03;;;;;;;9.18;5.70;;;;;;;12.44;86.88;96895.56;4873373;29;20184;-81
2021/05/05 02:29:29;;;;;;;14.77;6.80;;;;;;;12.55;87.26;96907.25;4877988;29;20032;-81
2021/05/05 02:31:55;;;;;;;10.30;6.78;;;;;;;12.47;87.27;96881.91;4855193;29;20029;-81
2021/05/05 02:34:20;;;;;;;16.13;7.50;;;;;;;12.45;87.03;96891.91;4855753;29;20413;-81
2021/05/05 02:36:46;;;;;;;16.40;7.20;;;;;;;12.47;87.39;96892.63;4854894;29;20033;-81
2021/05/05 02:39:12;;;;;;;11.13;6.72;;;;;;;12.49;86.55;96895.16;4848689;29;20032;-80
2021/05/05 02:41:42;;;;;;;12.27;6.40;;;;;;;12.38;87.02;96888.00;4881048;29;20068;-80
2021/05/05 02:44:08;;;;;;;10.60;6.43;;;;;;;12.52;87.06;96889.56;4870667;29;20085;-80
2021/05/05 02:46:34;;;;;;;13.45;6.70;;;;;;;12.60;85.95;96886.28;4872041;29;20028;-80
2021/05/05 02:49:00;;;;;;;9.98;5.75;;;;;;;12.57;86.43;96882.00;4868670;29;20041;-81
2021/05/05 02:51:25;;;;;;;9.85;5.68;;;;;;;12.66;86.15;96889.31;4862787;29;20444;-81
2021/05/05 02:53:51;;;;;;;13.25;6.57;;;;;;;12.69;85.86;96897.13;4853747;29;20059;-80
2021/05/05 02:56:17;;;;;;;7.03;5.13;;;;;;;12.89;83.21;96882.06;4855230;29;20037;-81
2021/05/05 02:58:42;;;;;;;10.65;4.43;;;;;;;13.26;81.04;96869.19;4865486;29;20076;-80
2021/05/05 03:01:08;;;;;;;25.52;4.07;;;;;;;13.83;76.48;96868.78;4860244;29;20036;-81
2021/05/05 03:03:33;;;;;;;59.38;5.63;;;;;;;14.71;71.64;96877.16;4847787;29;20029;-80
2021/05/05 03:05:59;;;;;;;3.53;2.25;;;;;;;15.11;69.48;96886.91;4855298;29;20201;-79
2021/05/05 03:08:25;;;;;;;3.25;2.15;;;;;;;15.45;67.77;96900.00;4862834;29;20059;-79
2021/05/05 03:10:50;;;;;;;8.07;3.08;;;;;;;15.56;67.06;96891.81;4876884;29;20524;-80
2021/05/05 03:13:16;;;;;;;4.47;3.20;;;;;;;15.64;66.93;96900.91;4854266;29;20052;-87
2021/05/05 03:15:41;;;;;;;6.35;2.58;;;;;;;15.70;66.22;96888.69;4849870;29;20029;-88
2021/05/05 03:18:07;;;;;;;8.38;3.13;;;;;;;15.74;66.29;96892.81;4858548;29;20046;-87
2021/05/05 03:20:33;;;;;;;4.80;3.25;;;;;;;15.67;67.53;96895.22;4857342;29;20088;-88
2021/05/05 03:22:58;;;;;;;7.97;3.53;;;;;;;15.53;67.19;96895.66;4854731;29;20084;-87
2021/05/05 03:25:24;;;;;;;6.18;3.63;;;;;;;15.03;68.65;96908.31;4854569;29;20045;-89
2021/05/05 03:27:54;;;;;;;7.20;3.60;;;;;;;14.94;71.06;96900.19;4854183;29;20037;-87
2021/05/05 03:30:21;;;;;;;7.63;3.60;;;;;;;15.19;70.34;96905.09;4854477;29;20017;-88
2021/05/05 03:32:46;;;;;;;11.75;3.63;;;;;;;15.35;69.87;96908.06;4861675;29;20028;-86
2021/05/05 03:35:12;;;;;;;11.52;2.80;;;;;;;15.36;69.60;96911.63;4854863;29;20088;-84
2021/05/05 03:37:38;;;;;;;6.65;3.30;;;;;;;15.40;68.41;96907.66;4856491;29;20065;-88
2021/05/05 03:40:05;;;;;;;10.70;3.72;;;;;;;15.47;68.42;96920.44;4864801;29;20024;-86
2021/05/05 03:42:31;;;;;;;12.10;5.03;;;;;;;15.23;70.43;96938.00;4857113;29;20037;-87
2021/05/05 03:44:58;;;;;;;8.57;5.50;;;;;;;14.83;73.30;96948.75;4857162;29;20024;-87
2021/05/05 03:47:23;;;;;;;9.57;5.50;;;;;;;14.58;74.87;96931.25;4856895;29;20032;-87
2021/05/05 03:49:49;;;;;;;10.07;5.47;;;;;;;14.42;75.41;96931.75;4856903;29;20021;-88
2021/05/05 03:52:14;;;;;;;9.77;5.25;;;;;;;14.29;75.60;96935.59;4867123;29;20032;-88
2021/05/05 03:54:40;;;;;;;8.77;5.38;;;;;;;14.34;74.83;96931.53;4861393;29;20028;-88
2021/05/05 03:57:06;;;;;;;7.38;4.22;;;;;;;14.41;73.41;96921.09;4853401;29;20028;-88
2021/05/05 03:59:35;;;;;;;8.98;4.45;;;;;;;14.59;71.69;96927.56;4853795;29;20033;-88
2021/05/05 04:02:00;;;;;;;8.15;4.35;;;;;;;14.49;72.94;96914.06;4862256;29;20481;-88
2021/05/05 04:04:26;;;;;;;7.07;4.45;;;;;;;14.64;72.71;96928.03;4853735;29;20033;-86
2021/05/05 04:06:52;;;;;;;7.18;3.92;;;;;;;14.80;72.99;96908.63;4853910;29;20057;-88
2021/05/05 04:09:17;;;;;;;5.75;3.70;;;;;;;14.90;72.49;96929.25;4848981;29;20033;-87
2021/05/05 04:11:43;;;;;;;7.07;3.83;;;;;;;14.91;72.26;96938.19;4851974;29;20040;-87
2021/05/05 04:14:09;;;;;;;6.70;4.13;;;;;;;14.91;71.79;96941.72;4856968;29;20036;-88
2021/05/05 04:16:35;;;;;;;6.28;4.15;;;;;;;14.91;72.15;96944.41;4857872;29;20093;-88
2021/05/05 04:19:01;;;;;;;9.32;5.78;;;;;;;14.99;71.07;96943.72;4856886;29;20033;-87
2021/05/05 04:21:27;;;;;;;10.93;4.63;;;;;;;15.04;70.85;96942.31;4859750;29;20104;-90
2021/05/05 04:23:59;;;;;;;38.60;20.13;;;;;;;15.11;72.74;96945.31;4873882;29;20560;-90
2021/05/05 04:26:25;;;;;;;10.68;5.85;;;;;;;15.19;71.96;96948.19;4849925;29;20036;-90
2021/05/05 04:28:51;;;;;;;7.22;4.35;;;;;;;15.30;71.29;96950.75;4857253;29;20416;-89
2021/05/05 04:31:17;;;;;;;11.45;4.38;;;;;;;15.36;69.56;96942.13;4850849;29;20112;-89
2021/05/05 04:34:13;;;;;;;14.15;4.70;;;;;;;15.35;68.38;96915.31;4857382;29;20037;-89
2021/05/05 04:36:38;;;;;;;12.15;4.45;;;;;;;15.56;67.79;96925.03;4836759;29;20049;-88
2021/05/05 04:39:04;;;;;;;9.32;3.92;;;;;;;15.58;67.75;96912.25;4853666;29;20465;-88
2021/05/05 04:41:30;;;;;;;12.60;4.95;;;;;;;15.91;67.29;96921.75;4868620;29;20029;-89
2021/05/05 04:43:55;;;;;;;8.77;4.50;;;;;;;16.10;67.05;96946.00;4853482;29;20058;-88
2021/05/05 04:46:21;;;;;;;17.60;5.35;;;;;;;16.30;66.65;96963.03;4853405;29;20066;-89
2021/05/05 04:48:46;;;;;;;16.20;3.90;;;;;;;16.36;64.59;96946.25;4861369;29;20025;-88
2021/05/05 04:51:12;;;;;;;18.23;4.70;;;;;;;16.40;64.51;96954.91;4856676;29;20024;-79
2021/05/05 04:53:38;;;;;;;8.82;3.55;;;;;;;16.54;63.75;96960.75;4860795;29;20036;-89
2021/05/05 04:56:04;;;;;;;9.25;5.65;;;;;;;16.60;64.09;96970.09;4858130;29;20461;-89
2021/05/05 04:58:29;;;;;;;11.45;5.97;;;;;;;16.79;64.11;96965.50;4877606;29;20025;-88
2021/05/05 05:00:55;;;;;;;13.65;5.07;;;;;;;16.91;64.58;96973.41;4858700;29;20024;-87
2021/05/05 05:03:21;;;;;;;40.75;14.75;;;;;;;17.01;64.79;96968.84;4859712;29;20127;-89
2021/05/05 05:05:46;;;;;;;23.83;13.90;;;;;;;17.15;64.36;96965.63;4860844;29;20060;-88
2021/05/05 05:08:12;;;;;;;27.63;12.38;;;;;;;17.31;63.49;96973.94;4872213;29;20644;-89
2021/05/05 05:10:37;;;;;;;14.63;6.75;;;;;;;17.49;63.54;96973.97;4874654;29;20041;-90
2021/05/05 05:13:04;;;;;;;22.23;6.00;;;;;;;17.70;62.72;96964.59;4882957;29;20184;-90
2021/05/05 05:15:29;;;;;;;18.95;6.45;;;;;;;17.90;63.55;96975.28;4882654;29;20119;-88
2021/05/05 05:17:55;;;;;;;13.43;5.72;;;;;;;17.70;63.53;96978.13;4850990;29;20128;-88
2021/05/05 05:20:21;;;;;;;65.55;20.85;;;;;;;17.57;64.37;96985.75;4849567;29;20029;-88
2021/05/05 05:22:47;;;;;;;33.75;6.70;;;;;;;17.48;65.35;96956.91;4856586;29;20057;-88
2021/05/05 05:25:13;;;;;;;21.80;8.57;;;;;;;17.49;64.69;96974.84;4872730;29;20111;-88
2021/05/05 05:27:39;;;;;;;11.02;5.55;;;;;;;17.58;62.88;96973.94;4848124;29;20552;-89
2021/05/05 05:30:06;;;;;;;11.73;6.53;;;;;;;17.71;61.43;96977.16;4850100;29;20052;-88
2021/05/05 05:32:32;;;;;;;11.27;4.22;;;;;;;18.00;61.05;96979.63;4862331;29;20060;-85
2021/05/05 05:34:57;;;;;;;11.73;4.88;;;;;;;17.87;62.00;96969.16;4864319;29;20111;-89
2021/05/05 05:37:23;;;;;;;11.52;4.80;;;;;;;17.81;61.40;96968.97;4867417;29;20024;-88
2021/05/05 05:39:48;;;;;;;12.15;4.25;;;;;;;17.87;61.79;96966.47;4861741;29;20032;-88
2021/05/05 05:42:14;;;;;;;12.02;4.50;;;;;;;17.63;63.66;96976.19;4858295;29;20412;-88
2021/05/05 05:44:39;;;;;;;8.90;5.28;;;;;;;17.20;64.82;96974.13;4859104;29;20037;-89
2021/05/05 05:47:05;;;;;;;11.77;4.95;;;;;;;17.05;65.25;96962.97;4852585;29;20474;-89
2021/05/05 05:49:32;;;;;;;7.32;4.05;;;;;;;17.08;65.54;96968.06;4860031;29;20025;-88
2021/05/05 05:51:58;;;;;;;10.68;4.90;;;;;;;17.00;66.80;96980.63;4866244;29;20029;-87
2021/05/05 05:54:24;;;;;;;5.70;4.43;;;;;;;16.90;67.15;96977.97;4890063;29;20053;-88
2021/05/05 05:56:49;;;;;;;8.88;4.43;;;;;;;16.82;66.02;96971.59;4856291;29;20112;-86
2021/05/05 05:59:15;;;;;;;7.43;4.00;;;;;;;17.09;65.92;96977.03;4848222;29;20033;-90
2021/05/05 06:01:41;;;;;;;5.75;3.78;;;;;;;17.31;64.56;96968.53;4864565;29;20036;-88
2021/05/05 06:04:07;;;;;;;7.40;4.32;;;;;;;17.50;64.52;96981.94;4869028;29;20037;-89
2021/05/05 06:06:32;;;;;;;7.15;4.50;;;;;;;17.61;63.65;96970.09;4856381;29;20528;-87
2021/05/05 06:08:58;;;;;;;7.75;4.93;;;;;;;17.60;63.29;96966.53;4864091;29;20028;-88
2021/05/05 06:11:23;;;;;;;7.00;3.92;;;;;;;18.14;60.76;96975.53;4853730;29;20066;-87
2021/05/05 06:13:49;;;;;;;5.70;4.38;;;;;;;18.51;59.20;96988.91;4859412;29;20398;-87
2021/05/05 06:16:15;;;;;;;8.80;4.90;;;;;;;19.03;57.15;96985.19;4856291;29;20100;-88
2021/05/05 06:18:40;;;;;;;6.63;3.97;;;;;;;19.50;54.31;96991.03;4848511;29;20088;-88
2021/05/05 06:21:07;;;;;;;11.43;7.28;;;;;;;19.74;53.86;96985.69;4855815;29;20079;-87
2021/05/05 06:23:32;;;;;;;24.98;15.30;;;;;;;19.81;54.49;96992.13;4871566;29;20032;-88
2021/05/05 06:25:58;;;;;;;6.88;4.63;;;;;;;20.07;54.27;96988.44;4866883;29;20039;-88
2021/05/05 06:28:23;;;;;;;14.05;5.85;;;;;;;20.19;54.85;96989.81;4850193;29;20107;-88
2021/05/05 06:30:49;;;;;;;5.60;4.28;;;;;;;20.41;52.33;96997.34;4873913;29;20044;-88
2021/05/05 06:33:15;;;;;;;16.58;4.88;;;;;;;20.45;53.08;96996.00;4851091;29;20044;-89
2021/05/05 06:35:41;;;;;;;7.43;5.10;;;;;;;19.79;54.80;96999.59;4859108;29;20056;-88
2021/05/05 06:38:07;;;;;;;11.50;5.40;;;;;;;19.80;55.78;96995.88;4866900;29;20036;-87
2021/05/05 06:40:32;;;;;;;9.95;5.00;;;;;;;20.11;56.20;97004.25;4856417;29;20025;-89
2021/05/05 06:42:58;;;;;;;8.50;5.35;;;;;;;20.71;54.00;97010.25;4881054;29;20032;-86
2021/05/05 06:45:24;;;;;;;8.80;4.78;;;;;;;21.16;51.98;96998.00;4865653;29;20025;-87
2021/05/05 06:47:49;;;;;;;7.20;5.55;;;;;;;22.34;48.86;96997.75;4867249;29;20025;-87
2021/05/05 06:50:15;;;;;;;9.20;4.35;;;;;;;23.77;45.18;97003.03;4850249;29;20062;-88
2021/05/05 06:52:41;;;;;;;9.25;4.28;;;;;;;25.05;41.84;97005.69;4853388;29;20040;-87
2021/05/05 06:55:17;;;;;;;14.13;4.28;;;;;;;26.10;39.26;97006.34;4875962;29;20032;-86
2021/05/05 07:29:59;;;;;;;14.27;6.63;;;;;;;21.12;45.77;96885.09;4884740;29;20044;-86
2021/05/05 07:32:25;;;;;;;12.75;8.52;;;;;;;23.08;42.28;96961.47;4870339;29;20043;-87
2021/05/05 07:34:52;;;;;;;4.93;2.90;;;;;;;25.35;36.54;96957.88;4847716;29;20497;-86
2021/05/05 07:37:39;;;;;;;7.20;3.20;;;;;;;26.61;34.50;96959.25;4857206;29;20548;-87
2021/05/05 07:46:28;;;;;;;6.95;3.15;;;;;;;26.32;34.11;96944.84;4876854;29;20043;-87
2021/05/05 07:48:56;;;;;;;6.53;3.05;;;;;;;27.04;33.65;96957.78;4867804;29;20174;-87
2021/05/05 07:51:22;;;;;;;5.63;3.33;;;;;;;27.12;32.76;96952.09;4865966;29;20421;-86
2021/05/05 07:53:48;;;;;;;6.70;3.08;;;;;;;27.47;32.47;96963.69;4874223;29;20033;-86
2021/05/05 07:56:14;;;;;;;3.72;2.67;;;;;;;28.21;31.82;96947.53;4856404;29;20043;-87
2021/05/05 07:58:42;;;;;;;7.88;2.90;;;;;;;28.17;31.00;96956.47;4846437;29;20025;-86
2021/05/05 08:01:11;;;;;;;6.38;2.90;;;;;;;28.61;30.52;96959.13;4846070;29;20029;-86
2021/05/05 08:03:38;;;;;;;3.65;2.80;;;;;;;28.34;30.63;96950.22;4846239;29;20047;-87
2021/05/05 08:06:04;;;;;;;6.80;3.00;;;;;;;28.09;30.74;96956.69;4846888;29;20039;-86
2021/05/05 08:08:30;;;;;;;8.38;3.13;;;;;;;28.17;31.21;96951.81;4846197;29;20490;-88
2021/05/05 08:10:56;;;;;;;8.93;3.20;;;;;;;28.53;30.33;96937.41;4860978;29;20035;-88
2021/05/05 08:13:21;;;;;;;5.55;2.70;;;;;;;29.00;29.02;96936.00;4865475;29;20053;-88
2021/05/05 08:15:47;;;;;;;7.18;3.47;;;;;;;28.44;30.36;96942.34;4880651;29;20037;-87
2021/05/05 08:18:13;;;;;;;6.38;2.92;;;;;;;28.25;30.88;96936.94;4857181;29;20088;-87
2021/05/05 08:20:39;;;;;;;5.25;3.00;;;;;;;28.46;30.62;96936.59;4847165;29;20041;-87
2021/05/05 08:23:06;;;;;;;4.28;2.90;;;;;;;28.52;30.02;96933.78;4854249;29;20186;-87
2021/05/05 08:25:32;;;;;;;4.28;3.00;;;;;;;29.15;29.76;96944.75;4877474;29;20105;-87
2021/05/05 08:27:58;;;;;;;5.00;2.97;;;;;;;29.27;29.61;96920.94;4856448;29;20119;-89
2021/05/05 08:30:25;;;;;;;6.30;3.25;;;;;;;28.24;30.07;96919.59;4853212;29;20041;-87
2021/05/05 08:32:50;;;;;;;3.17;2.83;;;;;;;27.84;30.69;96904.34;4855573;29;20504;-87
2021/05/05 08:35:16;;;;;;;5.53;3.00;;;;;;;27.58;31.00;96909.94;4857182;29;20041;-87
2021/05/05 08:37:43;;;;;;;6.18;2.50;;;;;;;28.31;29.54;96912.13;4876970;29;20041;-87
2021/05/05 08:40:10;;;;;;;4.78;3.22;;;;;;;28.61;29.58;96904.09;4861455;29;20040;-88
2021/05/05 08:42:39;;;;;;;7.72;3.08;;;;;;;29.25;28.85;96905.69;4868338;29;20040;-88
2021/05/05 08:45:14;;;;;;;4.93;2.58;;;;;;;29.34;28.07;96885.03;4860929;29;20155;-87
2021/05/05 08:47:42;;;;;;;4.10;2.70;;;;;;;30.00;27.93;96896.09;4876389;29;20032;-87
2021/05/05 08:50:08;;;;;;;7.25;3.95;;;;;;;29.28;28.65;96903.34;4860940;29;20068;-88
2021/05/05 08:52:33;;;;;;;6.70;3.00;;;;;;;28.71;29.05;96887.94;4880450;29;20041;-88
2021/05/05 08:54:59;;;;;;;5.68;2.67;;;;;;;28.94;28.44;96898.34;4859751;29;20104;-88
2021/05/05 08:57:24;;;;;;;6.47;2.30;;;;;;;28.02;29.44;96894.28;4859931;29;20041;-89
2021/05/05 08:59:50;;;;;;;4.25;2.80;;;;;;;26.36;32.16;96910.44;4860869;29;20032;-87
2021/05/05 09:02:15;;;;;;;5.25;3.20;;;;;;;24.85;34.71;96932.69;4868907;29;20119;-88
2021/05/05 09:04:57;;;;;;;6.10;3.20;;;;;;;24.61;34.98;96915.63;4866027;29;20028;-89
2021/05/05 09:07:35;;;;;;;12.32;3.17;;;;;;;24.62;35.15;96908.28;4858407;29;20113;-88
2021/05/05 09:10:10;;;;;;;4.72;3.08;;;;;;;24.84;34.81;96907.22;4862282;29;20068;-89
2021/05/05 09:12:38;;;;;;;4.75;2.85;;;;;;;24.30;35.69;96906.97;4867546;29;20043;-88
2021/05/05 09:15:08;;;;;;;4.47;2.70;;;;;;;24.01;36.39;96902.44;4877562;29;20524;-89
2021/05/05 09:17:35;;;;;;;4.78;2.70;;;;;;;23.60;36.24;96893.13;4856359;29;20104;-87
2021/05/05 09:20:07;;;;;;;3.58;3.05;;;;;;;23.28;36.83;96891.69;4862904;29;20401;-88
2021/05/05 09:22:37;;;;;;;8.30;3.47;;;;;;;23.35;37.68;96889.03;4883171;29;20044;-88
2021/05/05 09:25:05;;;;;;;5.47;4.45;;;;;;;23.70;36.73;96874.56;4865965;29;20036;-88
2021/05/05 09:27:33;;;;;;;4.72;3.30;;;;;;;24.68;35.38;96875.50;4858584;29;20039;-88
2021/05/05 09:30:11;;;;;;;6.43;2.97;;;;;;;25.43;33.95;96871.13;4884765;29;20054;-87
2021/05/05 09:33:08;;;;;;;3.67;2.70;;;;;;;26.71;32.45;96880.06;4867309;29;20081;-87
2021/05/05 09:35:39;;;;;;;6.20;3.22;;;;;;;27.88;30.77;96878.09;4865005;29;20041;-89
2021/05/05 09:38:07;;;;;;;6.27;3.20;;;;;;;27.75;30.48;96887.25;4861588;29;20029;-88
2021/05/05 09:40:34;;;;;;;7.10;3.08;;;;;;;27.35;30.94;96875.53;4858798;29;20120;-89
2021/05/05 09:43:16;;;;;;;6.25;3.47;;;;;;;25.96;32.54;96877.66;4880838;29;20060;-87
2021/05/05 09:45:42;;;;;;;6.40;3.03;;;;;;;24.78;34.70;96877.91;4879979;29;20497;-88
2021/05/05 09:48:08;;;;;;;6.28;3.25;;;;;;;24.76;34.87;96885.47;4858018;29;20036;-88
2021/05/05 09:50:41;;;;;;;6.93;3.00;;;;;;;24.80;34.61;96875.78;4866207;29;20020;-89
2021/05/05 09:53:17;;;;;;;6.57;3.10;;;;;;;24.40;35.56;96874.66;4870674;29;20030;-90
2021/05/05 09:56:04;;;;;;;15.63;3.28;;;;;;;24.22;35.20;96866.06;4857321;29;20037;-87
2021/05/05 09:58:30;;;;;;;5.50;3.17;;;;;;;24.09;35.57;96860.44;4871612;29;20044;-87
2021/05/05 10:01:11;;;;;;;6.82;3.05;;;;;;;24.01;35.88;96864.19;4872638;29;20029;-88
2021/05/05 10:03:43;;;;;;;7.72;3.10;;;;;;;24.04;35.94;96862.94;4872954;29;20028;-88
2021/05/05 10:06:24;;;;;;;;;;;;;;;23.99;36.76;96859.97;4867619;29;20028;-89
2021/05/05 10:08:56;;;;;;;6.45;3.30;;;;;;;24.22;36.12;96850.53;4871551;29;19915;-88
2021/05/05 10:11:28;;;;;;;8.02;2.90;;;;;;;24.74;35.00;96844.63;4872293;29;20404;-88
2021/05/05 10:14:03;;;;;;;20.65;3.50;;;;;;;25.32;34.19;96832.31;4856730;29;20053;-89
2021/05/05 10:16:33;;;;;;;7.47;3.33;;;;;;;25.85;33.87;96835.25;4868455;29;20033;-89
2021/05/05 10:19:44;;;;;;;11.38;3.75;;;;;;;26.25;33.49;96828.81;4859697;29;20029;-90
2021/05/05 10:22:11;;;;;;;4.03;3.05;;;;;;;26.37;31.56;96805.16;4871560;29;20056;-90
2021/05/05 10:24:43;;;;;;;8.82;3.25;;;;;;;27.60;30.89;96814.38;4854500;29;20045;-88
2021/05/05 10:27:11;;;;;;;19.50;10.30;;;;;;;28.08;29.92;96812.84;4836148;29;20049;-90
2021/05/05 10:29:38;;;;;;;5.68;3.65;;;;;;;27.79;30.20;96807.94;4831459;29;20044;-87
2021/05/05 10:32:08;;;;;;;4.95;2.85;;;;;;;27.84;29.60;96808.94;4848645;29;20044;-89
2021/05/05 10:34:34;;;;;;;14.70;3.80;;;;;;;27.36;29.26;96808.53;4848009;29;20076;-89
2021/05/05 10:37:01;;;;;;;13.73;3.03;;;;;;;26.87;28.62;96794.56;4847896;29;20070;-87
2021/05/05 10:39:32;;;;;;;12.70;3.55;;;;;;;26.75;30.13;96808.09;4850006;29;20041;-89
2021/05/05 10:42:17;;;;;;;17.13;3.60;;;;;;;26.47;30.88;96815.72;4842540;29;20109;-87
2021/05/05 10:44:48;;;;;;;8.25;3.30;;;;;;;26.68;30.17;96811.88;4837496;29;20040;-88
2021/05/05 10:47:34;;;;;;;4.47;3.13;;;;;;;26.73;29.74;96804.69;4843406;29;20044;-88
2021/05/05 10:50:05;;;;;;;9.63;3.35;;;;;;;26.78;30.45;96806.81;4835837;29;20037;-88
2021/05/05 10:52:42;;;;;;;12.45;3.75;;;;;;;26.81;29.78;96803.66;4867177;29;20417;-88
2021/05/05 10:55:10;;;;;;;8.10;2.90;;;;;;;27.11;29.40;96799.34;4874105;29;20084;-89
2021/05/05 10:57:37;;;;;;;9.45;3.00;;;;;;;27.27;29.92;96803.50;4865205;29;20024;-89
2021/05/05 11:00:05;;;;;;;10.15;2.95;;;;;;;28.17;29.45;96802.41;4848230;29;20044;-88
2021/05/05 11:05:30;;;;;;;7.90;2.85;;;;;;;29.30;27.41;96790.94;4893634;29;20036;-88
2021/05/05 11:07:56;;;;;;;6.85;3.67;;;;;;;28.91;28.02;96792.22;4877557;29;20040;-88
2021/05/05 11:10:40;;;;;;;8.00;4.13;;;;;;;27.32;30.53;96784.47;4859851;29;20025;-88
2021/05/05 11:13:17;;;;;;;3.05;2.70;;;;;;;26.85;30.60;96792.06;4887174;29;20075;-88
2021/05/05 11:15:44;;;;;;;8.30;3.08;;;;;;;26.51;30.81;96778.59;4879718;29;20040;-87
2021/05/05 11:18:28;;;;;;;8.23;3.42;;;;;;;26.66;31.19;96781.06;4864975;29;20033;-86
2021/05/05 11:21:10;;;;;;;6.57;2.83;;;;;;;26.95;30.92;96775.09;4865621;29;20512;-88
2021/05/05 11:23:40;;;;;;;4.68;3.53;;;;;;;27.32;30.22;96770.72;4877946;29;20029;-88
2021/05/05 11:26:25;;;;;;;4.78;3.30;;;;;;;29.07;28.11;96768.75;4869622;29;20021;-87
2021/05/05 11:29:02;;;;;;;6.38;2.67;;;;;;;29.27;27.59;96755.59;4853982;29;20212;-90
2021/05/05 11:31:47;;;;;;;25.08;3.53;;;;;;;29.69;28.46;96762.00;4869958;29;20496;-90
2021/05/05 11:34:21;;;;;;;13.20;3.38;;;;;;;29.82;28.04;96763.75;4884719;29;20495;-89
2021/05/05 11:36:50;;;;;;;5.90;2.90;;;;;;;30.16;26.30;96743.69;4870326;29;20041;-87
2021/05/05 11:39:29;;;;;;;8.98;2.90;;;;;;;31.09;26.60;96755.63;4852939;29;20020;-89
2021/05/05 11:41:55;;;;;;;7.45;3.28;;;;;;;33.36;24.76;96757.97;4869789;29;20032;-87
2021/05/05 11:44:35;;;;;;;9.98;3.78;;;;;;;35.35;22.18;96753.72;4846825;29;20359;-89
2021/05/05 11:47:08;;;;;;;12.02;3.00;;;;;;;37.23;19.94;96738.94;4866817;29;20036;-88
2021/05/05 11:49:41;;;;;;;7.13;2.80;;;;;;;37.89;18.73;96727.50;4863851;29;20052;-89
2021/05/05 11:52:19;;;;;;;6.55;2.80;;;;;;;36.51;19.56;96728.16;4851426;29;20055;-89
2021/05/05 11:54:47;;;;;;;7.30;3.80;;;;;;;33.58;21.89;96715.25;4864429;29;20097;-89
2021/05/05 11:57:14;;;;;;;5.57;2.90;;;;;;;31.29;23.03;96708.19;4880373;29;20457;-88
2021/05/05 11:59:39;;;;;;;4.90;2.30;;;;;;;29.54;25.23;96711.94;4864109;29;20119;-88
2021/05/05 12:02:05;;;;;;;5.85;2.20;;;;;;;29.00;25.89;96726.66;4854259;29;20059;-87
2021/05/05 12:04:38;;;;;;;2.78;2.10;;;;;;;29.20;25.47;96724.47;4861596;29;20028;-88
2021/05/05 12:07:06;;;;;;;14.43;4.65;;;;;;;29.18;26.43;96725.78;4873100;29;20040;-89
2021/05/05 12:09:42;;;;;;;24.73;3.83;;;;;;;28.72;26.61;96715.34;4862459;29;20032;-89
2021/05/05 12:12:10;;;;;;;19.77;3.50;;;;;;;28.44;27.04;96727.66;4852440;29;20033;-89
2021/05/05 12:14:36;;;;;;;4.43;2.78;;;;;;;28.54;26.40;96699.63;4869522;29;20061;-88